Emu Arrow — C6OR4 — position and weather

sailwx.info

Track history (hours):
 
Tides and Currents Weather Stations Pressure Air Temp Water Temp Dewpoint Dewpoint Depression Visibility Wind Speed Wind Dir Waves Ship Positions

Emu Arrow

Last reported at 2015-Jan-26 10:33 UTC. Time now 2015-Jan-27 14:30 UTC.
Position N 22°53' E 119°54'.

Length 200 m; draft 11.7 m.

Type: Cargo ship. MMSI: 309805000.

Date/timePositionNaut miles runAvg speedWind from/ knotsBaromVisibWave heightAir tempDewpointWater temp
2015-Jan-26 10:33N 22°53' E 119°54'1110.6
2015-Jan-26 09:33N 22°42' E 119°54'9 9.1
2015-Jan-26 08:33N 22°34' E 119°58'1111.2
2015-Jan-26 07:33N 22°33' E 120°10'9 8.9
2015-Jan-26 06:34N 22°33' E 120°19'1 1.1
2015-Jan-26 05:28N 22°34' E 120°18'0 0.0
2015-Jan-26 04:28N 22°34' E 120°18'0 0.0
2015-Jan-26 03:28N 22°34' E 120°18'0 0.0
2015-Jan-26 02:28N 22°34' E 120°18'0 0.0
2015-Jan-26 01:28N 22°34' E 120°18'0 0.0
2015-Jan-26 00:28N 22°34' E 120°18'0 0.0
2015-Jan-25 23:28N 22°34' E 120°18'0 0.0
2015-Jan-25 22:28N 22°34' E 120°18'0 0.0
2015-Jan-25 21:28N 22°34' E 120°18'0 0.0
2015-Jan-25 20:28N 22°34' E 120°18'0 0.0
2015-Jan-25 19:28N 22°34' E 120°18'0 0.0
2015-Jan-25 18:28N 22°34' E 120°18'0 0.0
2015-Jan-25 17:28N 22°34' E 120°18'0 0.0
2015-Jan-25 16:28N 22°34' E 120°18'0 0.0
2015-Jan-25 15:28N 22°34' E 120°18'0 0.0
2015-Jan-25 14:33N 22°34' E 120°18'3 2.9
2015-Jan-25 13:33N 22°32' E 120°16'8 8.0
2015-Jan-25 12:33N 22°25' E 120°14'1211.7
2015-Jan-25 11:33N 22°13' E 120°16'  
Track history (hours):
 
Tides and Currents Weather Stations Pressure Air Temp Water Temp Dewpoint Dewpoint Depression Visibility Wind Speed Wind Dir Waves Ship Positions

Emu Arrow

Last reported at 2015-Jan-26 10:33 UTC. Time now 2015-Jan-27 14:30 UTC.
Position N 22°53' E 119°54'.

Length 200 m; draft 11.7 m.

Type: Cargo ship. MMSI: 309805000.

Date/timePositionNaut miles runAvg speedWind from/ knotsBaromVisibWave heightAir tempDewpointWater temp
2015-Jan-26 10:33N 22°53' E 119°54'1110.6
2015-Jan-26 09:33N 22°42' E 119°54'9 9.1
2015-Jan-26 08:33N 22°34' E 119°58'1111.2
2015-Jan-26 07:33N 22°33' E 120°10'9 8.9
2015-Jan-26 06:34N 22°33' E 120°19'1 1.1
2015-Jan-26 05:28N 22°34' E 120°18'0 0.0
2015-Jan-26 04:28N 22°34' E 120°18'0 0.0
2015-Jan-26 03:28N 22°34' E 120°18'0 0.0
2015-Jan-26 02:28N 22°34' E 120°18'0 0.0
2015-Jan-26 01:28N 22°34' E 120°18'0 0.0
2015-Jan-26 00:28N 22°34' E 120°18'0 0.0
2015-Jan-25 23:28N 22°34' E 120°18'0 0.0
2015-Jan-25 22:28N 22°34' E 120°18'0 0.0
2015-Jan-25 21:28N 22°34' E 120°18'0 0.0
2015-Jan-25 20:28N 22°34' E 120°18'0 0.0
2015-Jan-25 19:28N 22°34' E 120°18'0 0.0
2015-Jan-25 18:28N 22°34' E 120°18'0 0.0
2015-Jan-25 17:28N 22°34' E 120°18'0 0.0
2015-Jan-25 16:28N 22°34' E 120°18'0 0.0
2015-Jan-25 15:28N 22°34' E 120°18'0 0.0
2015-Jan-25 14:33N 22°34' E 120°18'3 2.9
2015-Jan-25 13:33N 22°32' E 120°16'8 8.0
2015-Jan-25 12:33N 22°25' E 120°14'1211.7
2015-Jan-25 11:33N 22°13' E 120°16'  

Dump ship's entire track history